sensor_id;sensor_type;location;lat;lon;timestamp;P1;durP1;ratioP1;P2;durP2;ratioP2
73825;SDS011;64145;55.060;73.168;2022-10-16T00:01:20;30.00;;;26.00;;
73825;SDS011;64145;55.060;73.168;2022-10-16T00:03:46;30.00;;;27.50;;
73825;SDS011;64145;55.060;73.168;2022-10-16T00:06:12;29.50;;;27.50;;
73825;SDS011;64145;55.060;73.168;2022-10-16T00:08:38;34.50;;;31.50;;
73825;SDS011;64145;55.060;73.168;2022-10-16T00:11:05;41.33;;;35.00;;
73825;SDS011;64145;55.060;73.168;2022-10-16T00:13:32;43.50;;;36.25;;
73825;SDS011;64145;55.060;73.168;2022-10-16T00:15:58;44.50;;;36.00;;
73825;SDS011;64145;55.060;73.168;2022-10-16T00:18:25;45.50;;;36.50;;
73825;SDS011;64145;55.060;73.168;2022-10-16T00:21:02;43.50;;;35.00;;
73825;SDS011;64145;55.060;73.168;2022-10-16T00:23:27;41.00;;;33.00;;
73825;SDS011;64145;55.060;73.168;2022-10-16T00:26:00;41.50;;;33.00;;
73825;SDS011;64145;55.060;73.168;2022-10-16T00:28:26;51.50;;;41.50;;
73825;SDS011;64145;55.060;73.168;2022-10-16T00:30:52;50.00;;;40.33;;
73825;SDS011;64145;55.060;73.168;2022-10-16T00:33:27;45.00;;;37.00;;
73825;SDS011;64145;55.060;73.168;2022-10-16T00:35:58;38.50;;;32.50;;
73825;SDS011;64145;55.060;73.168;2022-10-16T00:38:35;36.50;;;31.75;;
73825;SDS011;64145;55.060;73.168;2022-10-16T00:41:00;39.67;;;32.00;;
73825;SDS011;64145;55.060;73.168;2022-10-16T00:46:15;41.50;;;35.00;;
73825;SDS011;64145;55.060;73.168;2022-10-16T00:48:42;40.50;;;33.25;;
73825;SDS011;64145;55.060;73.168;2022-10-16T00:51:09;41.50;;;35.00;;
73825;SDS011;64145;55.060;73.168;2022-10-16T00:53:35;41.00;;;34.00;;
73825;SDS011;64145;55.060;73.168;2022-10-16T00:56:02;41.25;;;33.00;;
73825;SDS011;64145;55.060;73.168;2022-10-16T00:58:27;37.75;;;30.75;;
73825;SDS011;64145;55.060;73.168;2022-10-16T01:00:53;40.00;;;34.00;;
73825;SDS011;64145;55.060;73.168;2022-10-16T01:03:32;43.00;;;35.33;;
73825;SDS011;64145;55.060;73.168;2022-10-16T01:06:00;40.00;;;32.50;;
73825;SDS011;64145;55.060;73.168;2022-10-16T01:08:35;40.50;;;33.00;;
73825;SDS011;64145;55.060;73.168;2022-10-16T01:11:11;37.00;;;32.00;;
73825;SDS011;64145;55.060;73.168;2022-10-16T01:13:41;35.00;;;31.50;;
73825;SDS011;64145;55.060;73.168;2022-10-16T01:19:04;36.00;;;31.00;;
73825;SDS011;64145;55.060;73.168;2022-10-16T01:21:33;35.75;;;29.75;;
73825;SDS011;64145;55.060;73.168;2022-10-16T01:31:59;30.00;;;27.00;;
73825;SDS011;64145;55.060;73.168;2022-10-16T01:34:33;29.75;;;28.25;;
73825;SDS011;64145;55.060;73.168;2022-10-16T01:37:02;31.75;;;28.00;;
73825;SDS011;64145;55.060;73.168;2022-10-16T01:39:30;38.50;;;31.25;;
73825;SDS011;64145;55.060;73.168;2022-10-16T01:42:02;38.25;;;31.50;;
73825;SDS011;64145;55.060;73.168;2022-10-16T01:44:29;40.00;;;32.50;;
73825;SDS011;64145;55.060;73.168;2022-10-16T01:46:56;39.00;;;31.50;;
73825;SDS011;64145;55.060;73.168;2022-10-16T01:49:34;36.00;;;30.00;;
73825;SDS011;64145;55.060;73.168;2022-10-16T01:52:02;31.00;;;27.00;;
73825;SDS011;64145;55.060;73.168;2022-10-16T01:54:30;30.50;;;27.25;;
73825;SDS011;64145;55.060;73.168;2022-10-16T01:56:57;38.50;;;31.75;;
73825;SDS011;64145;55.060;73.168;2022-10-16T01:59:24;46.75;;;39.00;;
73825;SDS011;64145;55.060;73.168;2022-10-16T02:01:52;47.00;;;39.00;;
73825;SDS011;64145;55.060;73.168;2022-10-16T02:07:17;38.00;;;32.50;;
73825;SDS011;64145;55.060;73.168;2022-10-16T02:09:43;57.67;;;44.33;;
73825;SDS011;64145;55.060;73.168;2022-10-16T02:12:23;76.00;;;67.00;;
73825;SDS011;64145;55.060;73.168;2022-10-16T02:14:50;114.75;;;101.25;;
73825;SDS011;64145;55.060;73.168;2022-10-16T02:17:19;139.33;;;124.67;;
73825;SDS011;64145;55.060;73.168;2022-10-16T02:19:45;105.75;;;96.50;;
73825;SDS011;64145;55.060;73.168;2022-10-16T02:22:17;71.50;;;65.50;;
73825;SDS011;64145;55.060;73.168;2022-10-16T02:29:49;35.75;;;32.25;;
73825;SDS011;64145;55.060;73.168;2022-10-16T02:32:17;33.25;;;29.00;;
73825;SDS011;64145;55.060;73.168;2022-10-16T02:34:45;29.75;;;27.00;;
73825;SDS011;64145;55.060;73.168;2022-10-16T02:37:22;25.75;;;25.00;;
73825;SDS011;64145;55.060;73.168;2022-10-16T02:39:47;26.67;;;25.67;;
73825;SDS011;64145;55.060;73.168;2022-10-16T02:42:13;28.33;;;26.33;;
73825;SDS011;64145;55.060;73.168;2022-10-16T02:44:39;26.50;;;24.50;;
73825;SDS011;64145;55.060;73.168;2022-10-16T02:47:05;26.33;;;24.00;;
73825;SDS011;64145;55.060;73.168;2022-10-16T02:49:30;28.00;;;26.00;;
73825;SDS011;64145;55.060;73.168;2022-10-16T02:51:56;27.00;;;25.67;;
73825;SDS011;64145;55.060;73.168;2022-10-16T02:54:21;26.67;;;25.33;;
73825;SDS011;64145;55.060;73.168;2022-10-16T02:56:47;35.00;;;29.00;;
73825;SDS011;64145;55.060;73.168;2022-10-16T02:59:12;44.67;;;36.67;;
73825;SDS011;64145;55.060;73.168;2022-10-16T03:01:42;43.00;;;36.25;;
73825;SDS011;64145;55.060;73.168;2022-10-16T03:04:17;33.50;;;30.50;;
73825;SDS011;64145;55.060;73.168;2022-10-16T03:06:43;30.00;;;28.00;;
73825;SDS011;64145;55.060;73.168;2022-10-16T03:09:08;29.67;;;28.33;;
73825;SDS011;64145;55.060;73.168;2022-10-16T03:11:37;29.00;;;27.75;;
73825;SDS011;64145;55.060;73.168;2022-10-16T03:14:03;35.00;;;29.50;;
73825;SDS011;64145;55.060;73.168;2022-10-16T03:16:36;33.00;;;29.50;;
73825;SDS011;64145;55.060;73.168;2022-10-16T03:19:02;34.00;;;30.33;;
73825;SDS011;64145;55.060;73.168;2022-10-16T03:21:37;32.50;;;29.50;;
73825;SDS011;64145;55.060;73.168;2022-10-16T03:24:03;32.00;;;29.33;;
73825;SDS011;64145;55.060;73.168;2022-10-16T03:26:29;38.00;;;32.50;;
73825;SDS011;64145;55.060;73.168;2022-10-16T03:28:54;39.00;;;32.33;;
73825;SDS011;64145;55.060;73.168;2022-10-16T03:31:20;42.00;;;35.33;;
73825;SDS011;64145;55.060;73.168;2022-10-16T03:33:46;44.50;;;38.00;;
73825;SDS011;64145;55.060;73.168;2022-10-16T03:36:16;44.00;;;37.00;;
73825;SDS011;64145;55.060;73.168;2022-10-16T03:38:42;41.00;;;34.33;;
73825;SDS011;64145;55.060;73.168;2022-10-16T03:41:07;40.67;;;35.67;;
73825;SDS011;64145;55.060;73.168;2022-10-16T03:43:33;42.00;;;35.33;;
73825;SDS011;64145;55.060;73.168;2022-10-16T03:45:58;46.33;;;39.00;;
73825;SDS011;64145;55.060;73.168;2022-10-16T03:48:24;47.00;;;38.33;;
73825;SDS011;64145;55.060;73.168;2022-10-16T03:50:49;42.00;;;34.00;;
73825;SDS011;64145;55.060;73.168;2022-10-16T03:53:17;42.75;;;34.00;;
73825;SDS011;64145;55.060;73.168;2022-10-16T03:55:43;41.00;;;34.00;;
73825;SDS011;64145;55.060;73.168;2022-10-16T03:58:08;40.25;;;33.25;;
73825;SDS011;64145;55.060;73.168;2022-10-16T04:00:34;39.33;;;33.33;;
73825;SDS011;64145;55.060;73.168;2022-10-16T04:03:00;36.33;;;31.00;;
73825;SDS011;64145;55.060;73.168;2022-10-16T04:05:35;39.75;;;33.00;;
73825;SDS011;64145;55.060;73.168;2022-10-16T04:08:01;39.00;;;34.00;;
73825;SDS011;64145;55.060;73.168;2022-10-16T04:10:36;40.00;;;33.25;;
73825;SDS011;64145;55.060;73.168;2022-10-16T04:13:02;40.67;;;34.67;;
73825;SDS011;64145;55.060;73.168;2022-10-16T04:15:28;38.00;;;33.00;;
73825;SDS011;64145;55.060;73.168;2022-10-16T04:18:03;40.00;;;34.00;;
73825;SDS011;64145;55.060;73.168;2022-10-16T04:20:29;40.25;;;33.75;;
73825;SDS011;64145;55.060;73.168;2022-10-16T04:22:55;41.00;;;34.75;;
73825;SDS011;64145;55.060;73.168;2022-10-16T04:25:21;46.00;;;38.75;;
73825;SDS011;64145;55.060;73.168;2022-10-16T04:27:47;48.33;;;41.00;;
73825;SDS011;64145;55.060;73.168;2022-10-16T04:30:13;48.50;;;41.00;;
73825;SDS011;64145;55.060;73.168;2022-10-16T04:32:38;49.00;;;41.00;;
73825;SDS011;64145;55.060;73.168;2022-10-16T04:35:04;50.67;;;43.00;;
73825;SDS011;64145;55.060;73.168;2022-10-16T04:37:39;53.25;;;44.00;;
73825;SDS011;64145;55.060;73.168;2022-10-16T04:40:14;55.25;;;45.00;;
73825;SDS011;64145;55.060;73.168;2022-10-16T04:42:46;56.00;;;45.00;;
73825;SDS011;64145;55.060;73.168;2022-10-16T04:45:12;52.33;;;42.00;;
73825;SDS011;64145;55.060;73.168;2022-10-16T04:47:37;55.00;;;43.00;;
73825;SDS011;64145;55.060;73.168;2022-10-16T04:50:03;54.00;;;44.00;;
73825;SDS011;64145;55.060;73.168;2022-10-16T04:52:37;55.50;;;44.25;;
73825;SDS011;64145;55.060;73.168;2022-10-16T04:55:02;54.00;;;43.00;;
73825;SDS011;64145;55.060;73.168;2022-10-16T04:57:29;53.00;;;42.00;;
73825;SDS011;64145;55.060;73.168;2022-10-16T04:59:54;50.75;;;42.00;;
73825;SDS011;64145;55.060;73.168;2022-10-16T05:02:20;51.00;;;42.00;;
73825;SDS011;64145;55.060;73.168;2022-10-16T05:04:54;51.00;;;41.00;;
73825;SDS011;64145;55.060;73.168;2022-10-16T05:07:24;50.00;;;41.00;;
73825;SDS011;64145;55.060;73.168;2022-10-16T05:09:50;51.33;;;42.33;;
73825;SDS011;64145;55.060;73.168;2022-10-16T05:12:22;51.00;;;43.00;;
73825;SDS011;64145;55.060;73.168;2022-10-16T05:14:50;49.75;;;42.50;;
73825;SDS011;64145;55.060;73.168;2022-10-16T05:17:19;48.75;;;41.00;;
73825;SDS011;64145;55.060;73.168;2022-10-16T05:19:45;50.33;;;41.00;;
73825;SDS011;64145;55.060;73.168;2022-10-16T05:22:11;50.33;;;41.00;;
73825;SDS011;64145;55.060;73.168;2022-10-16T05:24:36;50.33;;;42.00;;
73825;SDS011;64145;55.060;73.168;2022-10-16T05:27:02;48.33;;;41.33;;
73825;SDS011;64145;55.060;73.168;2022-10-16T05:29:32;51.00;;;43.00;;
73825;SDS011;64145;55.060;73.168;2022-10-16T05:31:58;50.33;;;41.33;;
73825;SDS011;64145;55.060;73.168;2022-10-16T05:34:23;52.33;;;43.00;;
73825;SDS011;64145;55.060;73.168;2022-10-16T05:36:58;51.00;;;42.00;;
73825;SDS011;64145;55.060;73.168;2022-10-16T05:39:24;48.33;;;41.00;;
73825;SDS011;64145;55.060;73.168;2022-10-16T05:41:49;50.33;;;43.00;;
73825;SDS011;64145;55.060;73.168;2022-10-16T05:44:25;52.00;;;42.50;;
73825;SDS011;64145;55.060;73.168;2022-10-16T05:46:51;52.00;;;43.00;;
73825;SDS011;64145;55.060;73.168;2022-10-16T05:49:16;49.00;;;41.67;;
73825;SDS011;64145;55.060;73.168;2022-10-16T05:51:42;47.67;;;40.33;;
73825;SDS011;64145;55.060;73.168;2022-10-16T05:54:08;45.67;;;38.67;;
73825;SDS011;64145;55.060;73.168;2022-10-16T05:56:33;44.00;;;36.50;;
73825;SDS011;64145;55.060;73.168;2022-10-16T05:58:59;40.00;;;35.00;;
73825;SDS011;64145;55.060;73.168;2022-10-16T06:01:35;43.00;;;36.00;;
73825;SDS011;64145;55.060;73.168;2022-10-16T06:04:01;40.00;;;34.00;;
73825;SDS011;64145;55.060;73.168;2022-10-16T06:06:27;38.25;;;32.00;;
73825;SDS011;64145;55.060;73.168;2022-10-16T06:08:53;32.25;;;30.00;;
73825;SDS011;64145;55.060;73.168;2022-10-16T06:11:20;40.75;;;33.50;;
73825;SDS011;64145;55.060;73.168;2022-10-16T06:13:51;38.00;;;32.00;;
73825;SDS011;64145;55.060;73.168;2022-10-16T06:16:16;37.50;;;31.00;;
73825;SDS011;64145;55.060;73.168;2022-10-16T06:18:43;34.50;;;31.00;;
73825;SDS011;64145;55.060;73.168;2022-10-16T06:21:10;34.00;;;30.00;;
73825;SDS011;64145;55.060;73.168;2022-10-16T06:23:46;29.00;;;28.25;;
73825;SDS011;64145;55.060;73.168;2022-10-16T06:26:23;29.00;;;27.75;;
73825;SDS011;64145;55.060;73.168;2022-10-16T06:28:49;28.50;;;27.25;;
73825;SDS011;64145;55.060;73.168;2022-10-16T06:31:15;28.00;;;25.33;;
73825;SDS011;64145;55.060;73.168;2022-10-16T06:33:49;28.00;;;27.00;;
73825;SDS011;64145;55.060;73.168;2022-10-16T06:36:16;27.50;;;26.50;;
73825;SDS011;64145;55.060;73.168;2022-10-16T06:38:47;29.25;;;28.50;;
73825;SDS011;64145;55.060;73.168;2022-10-16T06:41:13;29.33;;;28.33;;
73825;SDS011;64145;55.060;73.168;2022-10-16T06:43:39;30.25;;;27.50;;
73825;SDS011;64145;55.060;73.168;2022-10-16T06:46:05;27.00;;;25.00;;
73825;SDS011;64145;55.060;73.168;2022-10-16T06:48:37;27.50;;;26.75;;
73825;SDS011;64145;55.060;73.168;2022-10-16T06:51:12;28.00;;;27.50;;
73825;SDS011;64145;55.060;73.168;2022-10-16T06:53:40;28.75;;;26.00;;
73825;SDS011;64145;55.060;73.168;2022-10-16T06:56:13;29.25;;;24.25;;
73825;SDS011;64145;55.060;73.168;2022-10-16T06:58:46;27.50;;;23.75;;
73825;SDS011;64145;55.060;73.168;2022-10-16T07:01:12;21.25;;;19.50;;
73825;SDS011;64145;55.060;73.168;2022-10-16T07:03:48;26.00;;;25.00;;
73825;SDS011;64145;55.060;73.168;2022-10-16T07:06:15;25.00;;;23.00;;
73825;SDS011;64145;55.060;73.168;2022-10-16T07:08:41;24.00;;;23.25;;
73825;SDS011;64145;55.060;73.168;2022-10-16T07:11:08;23.75;;;22.00;;
73825;SDS011;64145;55.060;73.168;2022-10-16T07:13:34;21.50;;;20.50;;
73825;SDS011;64145;55.060;73.168;2022-10-16T07:16:04;19.50;;;18.00;;
73825;SDS011;64145;55.060;73.168;2022-10-16T07:18:29;34.00;;;29.75;;
73825;SDS011;64145;55.060;73.168;2022-10-16T07:21:06;68.25;;;52.75;;
73825;SDS011;64145;55.060;73.168;2022-10-16T07:23:32;120.75;;;102.50;;
73825;SDS011;64145;55.060;73.168;2022-10-16T07:25:58;81.00;;;70.33;;
73825;SDS011;64145;55.060;73.168;2022-10-16T07:28:24;54.33;;;44.00;;
73825;SDS011;64145;55.060;73.168;2022-10-16T07:30:50;52.00;;;42.00;;
73825;SDS011;64145;55.060;73.168;2022-10-16T07:33:16;80.33;;;75.00;;
73825;SDS011;64145;55.060;73.168;2022-10-16T07:35:48;62.25;;;49.75;;
73825;SDS011;64145;55.060;73.168;2022-10-16T07:38:14;51.00;;;42.00;;
73825;SDS011;64145;55.060;73.168;2022-10-16T07:40:55;36.50;;;32.00;;
73825;SDS011;64145;55.060;73.168;2022-10-16T07:43:21;18.00;;;17.25;;
73825;SDS011;64145;55.060;73.168;2022-10-16T07:45:49;14.00;;;14.00;;
73825;SDS011;64145;55.060;73.168;2022-10-16T07:48:16;21.50;;;21.50;;
73825;SDS011;64145;55.060;73.168;2022-10-16T07:50:41;20.00;;;20.00;;
73825;SDS011;64145;55.060;73.168;2022-10-16T07:53:07;13.00;;;13.00;;
73825;SDS011;64145;55.060;73.168;2022-10-16T07:55:43;15.50;;;13.00;;
73825;SDS011;64145;55.060;73.168;2022-10-16T07:58:14;21.50;;;19.75;;
73825;SDS011;64145;55.060;73.168;2022-10-16T08:00:49;28.00;;;24.00;;
73825;SDS011;64145;55.060;73.168;2022-10-16T08:03:15;31.00;;;29.00;;
73825;SDS011;64145;55.060;73.168;2022-10-16T08:05:40;31.00;;;29.00;;
73825;SDS011;64145;55.060;73.168;2022-10-16T08:08:13;49.25;;;40.75;;
73825;SDS011;64145;55.060;73.168;2022-10-16T08:10:39;44.25;;;36.00;;
73825;SDS011;64145;55.060;73.168;2022-10-16T08:13:10;35.00;;;30.25;;
73825;SDS011;64145;55.060;73.168;2022-10-16T08:15:36;33.00;;;30.00;;
73825;SDS011;64145;55.060;73.168;2022-10-16T08:18:07;34.50;;;31.00;;
73825;SDS011;64145;55.060;73.168;2022-10-16T08:20:32;24.00;;;22.00;;
73825;SDS011;64145;55.060;73.168;2022-10-16T08:23:07;47.25;;;39.75;;
73825;SDS011;64145;55.060;73.168;2022-10-16T08:25:35;41.00;;;34.75;;
73825;SDS011;64145;55.060;73.168;2022-10-16T08:28:09;26.50;;;26.50;;
73825;SDS011;64145;55.060;73.168;2022-10-16T08:30:35;23.00;;;23.00;;
73825;SDS011;64145;55.060;73.168;2022-10-16T08:33:01;22.00;;;21.00;;
73825;SDS011;64145;55.060;73.168;2022-10-16T08:35:27;19.00;;;19.00;;
73825;SDS011;64145;55.060;73.168;2022-10-16T08:37:53;14.67;;;13.33;;
73825;SDS011;64145;55.060;73.168;2022-10-16T08:40:29;6.50;;;5.75;;
73825;SDS011;64145;55.060;73.168;2022-10-16T08:48:53;3.00;;;3.00;;
73825;SDS011;64145;55.060;73.168;2022-10-16T08:53:56;2.00;;;2.00;;
73825;SDS011;64145;55.060;73.168;2022-10-16T08:56:23;2.00;;;2.00;;
73825;SDS011;64145;55.060;73.168;2022-10-16T08:58:49;3.50;;;3.25;;
73825;SDS011;64145;55.060;73.168;2022-10-16T09:01:16;2.33;;;2.33;;
73825;SDS011;64145;55.060;73.168;2022-10-16T09:03:58;2.25;;;2.25;;
73825;SDS011;64145;55.060;73.168;2022-10-16T09:06:46;3.00;;;3.00;;
73825;SDS011;64145;55.060;73.168;2022-10-16T09:12:09;2.00;;;2.00;;
73825;SDS011;64145;55.060;73.168;2022-10-16T09:19:36;4.00;;;4.00;;
73825;SDS011;64145;55.060;73.168;2022-10-16T09:22:10;7.25;;;6.25;;
73825;SDS011;64145;55.060;73.168;2022-10-16T09:24:37;4.50;;;4.00;;
73825;SDS011;64145;55.060;73.168;2022-10-16T09:27:03;6.00;;;5.00;;
73825;SDS011;64145;55.060;73.168;2022-10-16T09:29:29;3.00;;;3.00;;
73825;SDS011;64145;55.060;73.168;2022-10-16T09:31:54;5.00;;;4.00;;
73825;SDS011;64145;55.060;73.168;2022-10-16T09:34:30;6.00;;;6.00;;
73825;SDS011;64145;55.060;73.168;2022-10-16T09:36:56;7.00;;;6.00;;
73825;SDS011;64145;55.060;73.168;2022-10-16T09:39:22;6.00;;;5.00;;
73825;SDS011;64145;55.060;73.168;2022-10-16T09:41:48;5.00;;;5.00;;
73825;SDS011;64145;55.060;73.168;2022-10-16T09:44:17;5.50;;;5.50;;
73825;SDS011;64145;55.060;73.168;2022-10-16T09:46:44;5.25;;;5.00;;
73825;SDS011;64145;55.060;73.168;2022-10-16T09:49:20;7.67;;;7.33;;
73825;SDS011;64145;55.060;73.168;2022-10-16T09:51:46;7.50;;;7.25;;
73825;SDS011;64145;55.060;73.168;2022-10-16T09:54:16;6.50;;;6.50;;
73825;SDS011;64145;55.060;73.168;2022-10-16T09:56:43;4.00;;;4.00;;
73825;SDS011;64145;55.060;73.168;2022-10-16T09:59:14;5.00;;;4.75;;
73825;SDS011;64145;55.060;73.168;2022-10-16T10:01:41;7.00;;;7.00;;
73825;SDS011;64145;55.060;73.168;2022-10-16T10:04:07;6.25;;;6.25;;
73825;SDS011;64145;55.060;73.168;2022-10-16T10:06:45;5.50;;;4.75;;
73825;SDS011;64145;55.060;73.168;2022-10-16T10:09:25;4.00;;;3.00;;
73825;SDS011;64145;55.060;73.168;2022-10-16T10:11:55;6.00;;;5.50;;
73825;SDS011;64145;55.060;73.168;2022-10-16T10:14:27;7.50;;;7.50;;
73825;SDS011;64145;55.060;73.168;2022-10-16T10:17:24;10.25;;;10.25;;
73825;SDS011;64145;55.060;73.168;2022-10-16T10:30:20;42.50;;;37.00;;
73825;SDS011;64145;55.060;73.168;2022-10-16T10:45:54;2.75;;;2.75;;
73825;SDS011;64145;55.060;73.168;2022-10-16T10:51:12;17.00;;;15.50;;
73825;SDS011;64145;55.060;73.168;2022-10-16T10:56:08;20.67;;;19.67;;
73825;SDS011;64145;55.060;73.168;2022-10-16T11:03:55;22.50;;;21.25;;
73825;SDS011;64145;55.060;73.168;2022-10-16T11:06:24;19.75;;;19.00;;
73825;SDS011;64145;55.060;73.168;2022-10-16T11:09:00;20.00;;;19.25;;
73825;SDS011;64145;55.060;73.168;2022-10-16T11:11:32;91.75;;;84.25;;
73825;SDS011;64145;55.060;73.168;2022-10-16T11:16:30;62.33;;;50.67;;
73825;SDS011;64145;55.060;73.168;2022-10-16T11:21:25;63.00;;;50.00;;
73825;SDS011;64145;55.060;73.168;2022-10-16T11:23:57;53.25;;;43.50;;
73825;SDS011;64145;55.060;73.168;2022-10-16T11:26:35;38.75;;;33.25;;
73825;SDS011;64145;55.060;73.168;2022-10-16T11:29:05;26.50;;;25.50;;
73825;SDS011;64145;55.060;73.168;2022-10-16T11:34:26;18.00;;;17.00;;
73825;SDS011;64145;55.060;73.168;2022-10-16T11:36:58;15.00;;;13.50;;
73825;SDS011;64145;55.060;73.168;2022-10-16T11:39:28;32.00;;;28.75;;
73825;SDS011;64145;55.060;73.168;2022-10-16T11:44:43;71.50;;;60.00;;
73825;SDS011;64145;55.060;73.168;2022-10-16T11:49:40;92.75;;;87.25;;
73825;SDS011;64145;55.060;73.168;2022-10-16T11:57:39;157.50;;;144.50;;
73825;SDS011;64145;55.060;73.168;2022-10-16T12:05:49;107.50;;;102.00;;
73825;SDS011;64145;55.060;73.168;2022-10-16T12:10:34;97.00;;;91.75;;
73825;SDS011;64145;55.060;73.168;2022-10-16T12:13:32;77.75;;;73.75;;
73825;SDS011;64145;55.060;73.168;2022-10-16T12:18:49;104.00;;;97.75;;
73825;SDS011;64145;55.060;73.168;2022-10-16T12:21:30;142.75;;;129.50;;
73825;SDS011;64145;55.060;73.168;2022-10-16T12:23:58;150.25;;;134.75;;
73825;SDS011;64145;55.060;73.168;2022-10-16T12:26:31;109.25;;;102.50;;
73825;SDS011;64145;55.060;73.168;2022-10-16T12:29:13;114.25;;;106.50;;
73825;SDS011;64145;55.060;73.168;2022-10-16T12:31:43;111.50;;;104.75;;
73825;SDS011;64145;55.060;73.168;2022-10-16T12:34:25;109.00;;;100.50;;
73825;SDS011;64145;55.060;73.168;2022-10-16T12:36:52;105.75;;;94.25;;
73825;SDS011;64145;55.060;73.168;2022-10-16T12:39:22;111.25;;;102.75;;
73825;SDS011;64145;55.060;73.168;2022-10-16T12:41:59;107.50;;;100.50;;
73825;SDS011;64145;55.060;73.168;2022-10-16T12:44:25;109.75;;;102.25;;
73825;SDS011;64145;55.060;73.168;2022-10-16T12:46:53;109.00;;;102.25;;
73825;SDS011;64145;55.060;73.168;2022-10-16T12:49:28;104.25;;;97.00;;
73825;SDS011;64145;55.060;73.168;2022-10-16T12:52:00;114.75;;;108.00;;
73825;SDS011;64145;55.060;73.168;2022-10-16T12:54:35;116.33;;;110.67;;
73825;SDS011;64145;55.060;73.168;2022-10-16T13:13:24;105.50;;;99.50;;
73825;SDS011;64145;55.060;73.168;2022-10-16T13:16:02;91.00;;;85.50;;
73825;SDS011;64145;55.060;73.168;2022-10-16T13:23:56;99.75;;;94.50;;
73825;SDS011;64145;55.060;73.168;2022-10-16T13:26:34;93.25;;;86.00;;
73825;SDS011;64145;55.060;73.168;2022-10-16T13:29:03;82.00;;;75.75;;
73825;SDS011;64145;55.060;73.168;2022-10-16T13:31:29;81.75;;;76.75;;
73825;SDS011;64145;55.060;73.168;2022-10-16T13:33:56;81.75;;;77.50;;
73825;SDS011;64145;55.060;73.168;2022-10-16T13:36:57;81.50;;;77.50;;
73825;SDS011;64145;55.060;73.168;2022-10-16T13:39:21;85.75;;;78.50;;
73825;SDS011;64145;55.060;73.168;2022-10-16T13:41:57;87.50;;;80.50;;
73825;SDS011;64145;55.060;73.168;2022-10-16T13:44:23;97.25;;;90.25;;
73825;SDS011;64145;55.060;73.168;2022-10-16T13:47:00;101.00;;;94.00;;
73825;SDS011;64145;55.060;73.168;2022-10-16T13:49:26;80.25;;;74.00;;
73825;SDS011;64145;55.060;73.168;2022-10-16T13:51:55;69.33;;;60.33;;
73825;SDS011;64145;55.060;73.168;2022-10-16T13:54:20;67.00;;;56.75;;
73825;SDS011;64145;55.060;73.168;2022-10-16T13:56:46;63.00;;;50.33;;
73825;SDS011;64145;55.060;73.168;2022-10-16T13:59:32;59.00;;;47.33;;
73825;SDS011;64145;55.060;73.168;2022-10-16T14:01:58;57.00;;;44.50;;
73825;SDS011;64145;55.060;73.168;2022-10-16T14:04:24;58.00;;;46.00;;
73825;SDS011;64145;55.060;73.168;2022-10-16T14:06:53;57.50;;;44.75;;
73825;SDS011;64145;55.060;73.168;2022-10-16T14:09:28;61.00;;;48.67;;
73825;SDS011;64145;55.060;73.168;2022-10-16T14:12:07;67.50;;;57.25;;
73825;SDS011;64145;55.060;73.168;2022-10-16T14:14:34;61.50;;;48.50;;
73825;SDS011;64145;55.060;73.168;2022-10-16T14:17:05;52.00;;;41.25;;
73825;SDS011;64145;55.060;73.168;2022-10-16T14:19:31;46.00;;;39.00;;
73825;SDS011;64145;55.060;73.168;2022-10-16T14:21:56;42.33;;;34.33;;
73825;SDS011;64145;55.060;73.168;2022-10-16T14:24:30;43.00;;;34.50;;
73825;SDS011;64145;55.060;73.168;2022-10-16T14:26:56;44.50;;;36.25;;
73825;SDS011;64145;55.060;73.168;2022-10-16T14:29:24;47.25;;;38.75;;
73825;SDS011;64145;55.060;73.168;2022-10-16T14:31:58;49.00;;;39.00;;
73825;SDS011;64145;55.060;73.168;2022-10-16T14:34:35;47.25;;;38.25;;
73825;SDS011;64145;55.060;73.168;2022-10-16T14:37:04;47.00;;;37.75;;
73825;SDS011;64145;55.060;73.168;2022-10-16T14:39:32;46.00;;;37.25;;
73825;SDS011;64145;55.060;73.168;2022-10-16T14:42:03;45.25;;;37.25;;
73825;SDS011;64145;55.060;73.168;2022-10-16T14:44:31;46.00;;;37.67;;
73825;SDS011;64145;55.060;73.168;2022-10-16T14:46:57;46.50;;;39.25;;
73825;SDS011;64145;55.060;73.168;2022-10-16T14:49:24;55.75;;;45.00;;
73825;SDS011;64145;55.060;73.168;2022-10-16T14:51:50;63.00;;;51.25;;
73825;SDS011;64145;55.060;73.168;2022-10-16T14:54:17;65.25;;;54.75;;
73825;SDS011;64145;55.060;73.168;2022-10-16T14:56:46;70.25;;;61.25;;
73825;SDS011;64145;55.060;73.168;2022-10-16T14:59:26;73.75;;;67.00;;
73825;SDS011;64145;55.060;73.168;2022-10-16T15:01:55;76.00;;;69.50;;
73825;SDS011;64145;55.060;73.168;2022-10-16T15:04:30;73.50;;;69.00;;
73825;SDS011;64145;55.060;73.168;2022-10-16T15:06:56;77.00;;;72.33;;
73825;SDS011;64145;55.060;73.168;2022-10-16T15:09:31;75.50;;;71.00;;
73825;SDS011;64145;55.060;73.168;2022-10-16T15:12:07;71.00;;;63.25;;
73825;SDS011;64145;55.060;73.168;2022-10-16T15:14:33;72.67;;;64.33;;
73825;SDS011;64145;55.060;73.168;2022-10-16T15:17:04;71.00;;;64.50;;
73825;SDS011;64145;55.060;73.168;2022-10-16T15:19:35;66.50;;;57.50;;
73825;SDS011;64145;55.060;73.168;2022-10-16T15:22:00;68.67;;;60.67;;
73825;SDS011;64145;55.060;73.168;2022-10-16T15:24:26;77.00;;;70.33;;
73825;SDS011;64145;55.060;73.168;2022-10-16T15:26:51;85.67;;;78.67;;
73825;SDS011;64145;55.060;73.168;2022-10-16T15:29:17;80.00;;;75.00;;
73825;SDS011;64145;55.060;73.168;2022-10-16T15:31:47;73.00;;;67.25;;
73825;SDS011;64145;55.060;73.168;2022-10-16T15:34:13;67.00;;;55.33;;
73825;SDS011;64145;55.060;73.168;2022-10-16T15:36:38;61.50;;;48.00;;
73825;SDS011;64145;55.060;73.168;2022-10-16T15:39:15;51.50;;;42.00;;
73825;SDS011;64145;55.060;73.168;2022-10-16T15:41:42;47.75;;;39.00;;
73825;SDS011;64145;55.060;73.168;2022-10-16T15:44:08;44.00;;;36.33;;
73825;SDS011;64145;55.060;73.168;2022-10-16T15:46:33;31.75;;;29.00;;
73825;SDS011;64145;55.060;73.168;2022-10-16T15:49:00;24.50;;;23.00;;
73825;SDS011;64145;55.060;73.168;2022-10-16T15:51:30;17.75;;;16.75;;
73825;SDS011;64145;55.060;73.168;2022-10-16T15:54:07;18.50;;;17.50;;
73825;SDS011;64145;55.060;73.168;2022-10-16T15:56:33;17.00;;;16.00;;
73825;SDS011;64145;55.060;73.168;2022-10-16T15:58:59;13.33;;;13.33;;
73825;SDS011;64145;55.060;73.168;2022-10-16T16:01:25;9.25;;;9.25;;
73825;SDS011;64145;55.060;73.168;2022-10-16T16:03:55;5.00;;;5.00;;
73825;SDS011;64145;55.060;73.168;2022-10-16T16:06:21;2.00;;;2.00;;
73825;SDS011;64145;55.060;73.168;2022-10-16T16:08:49;6.00;;;5.50;;
73825;SDS011;64145;55.060;73.168;2022-10-16T16:11:15;10.00;;;8.00;;
73825;SDS011;64145;55.060;73.168;2022-10-16T16:13:41;3.00;;;3.00;;
73825;SDS011;64145;55.060;73.168;2022-10-16T16:16:07;1.00;;;1.00;;
73825;SDS011;64145;55.060;73.168;2022-10-16T16:18:33;3.00;;;3.00;;
73825;SDS011;64145;55.060;73.168;2022-10-16T16:20:59;2.33;;;2.00;;
73825;SDS011;64145;55.060;73.168;2022-10-16T16:23:24;3.00;;;3.00;;
73825;SDS011;64145;55.060;73.168;2022-10-16T16:28:31;2.75;;;2.75;;